sensor_id;sensor_type;location;lat;lon;timestamp;P1;durP1;ratioP1;P2;durP2;ratioP2
5173;SDS011;2606;50.934;6.934;2022-12-18T00:00:41;20.17;;;7.13;;
5173;SDS011;2606;50.934;6.934;2022-12-18T00:03:08;16.05;;;7.82;;
5173;SDS011;2606;50.934;6.934;2022-12-18T00:05:34;17.60;;;6.88;;
5173;SDS011;2606;50.934;6.934;2022-12-18T00:08:00;20.60;;;8.53;;
5173;SDS011;2606;50.934;6.934;2022-12-18T00:10:26;16.70;;;7.43;;
5173;SDS011;2606;50.934;6.934;2022-12-18T00:12:52;15.32;;;6.60;;
5173;SDS011;2606;50.934;6.934;2022-12-18T00:15:18;15.47;;;6.37;;
5173;SDS011;2606;50.934;6.934;2022-12-18T00:17:44;18.67;;;7.00;;
5173;SDS011;2606;50.934;6.934;2022-12-18T00:20:09;12.13;;;6.43;;
5173;SDS011;2606;50.934;6.934;2022-12-18T00:22:35;12.90;;;6.43;;
5173;SDS011;2606;50.934;6.934;2022-12-18T00:25:01;17.83;;;6.73;;
5173;SDS011;2606;50.934;6.934;2022-12-18T00:27:26;21.70;;;10.50;;
5173;SDS011;2606;50.934;6.934;2022-12-18T00:29:52;19.13;;;7.73;;
5173;SDS011;2606;50.934;6.934;2022-12-18T00:32:17;16.30;;;7.10;;
5173;SDS011;2606;50.934;6.934;2022-12-18T00:34:43;13.27;;;6.97;;
5173;SDS011;2606;50.934;6.934;2022-12-18T00:37:08;19.90;;;8.57;;
5173;SDS011;2606;50.934;6.934;2022-12-18T00:39:34;16.30;;;6.30;;
5173;SDS011;2606;50.934;6.934;2022-12-18T00:42:00;22.70;;;7.70;;
5173;SDS011;2606;50.934;6.934;2022-12-18T00:44:44;20.08;;;7.07;;
5173;SDS011;2606;50.934;6.934;2022-12-18T00:47:09;16.83;;;7.07;;
5173;SDS011;2606;50.934;6.934;2022-12-18T00:49:35;14.90;;;7.13;;
5173;SDS011;2606;50.934;6.934;2022-12-18T00:52:01;11.53;;;5.67;;
5173;SDS011;2606;50.934;6.934;2022-12-18T00:54:26;18.37;;;7.67;;
5173;SDS011;2606;50.934;6.934;2022-12-18T00:56:52;15.20;;;6.57;;
5173;SDS011;2606;50.934;6.934;2022-12-18T00:59:18;14.80;;;7.00;;
5173;SDS011;2606;50.934;6.934;2022-12-18T01:01:43;15.33;;;6.73;;
5173;SDS011;2606;50.934;6.934;2022-12-18T01:04:09;16.75;;;6.95;;
5173;SDS011;2606;50.934;6.934;2022-12-18T01:06:35;19.70;;;8.30;;
5173;SDS011;2606;50.934;6.934;2022-12-18T01:09:00;15.37;;;7.10;;
5173;SDS011;2606;50.934;6.934;2022-12-18T01:11:27;16.38;;;8.90;;
5173;SDS011;2606;50.934;6.934;2022-12-18T01:13:53;16.07;;;6.77;;
5173;SDS011;2606;50.934;6.934;2022-12-18T01:16:19;14.35;;;7.28;;
5173;SDS011;2606;50.934;6.934;2022-12-18T01:18:45;15.82;;;6.40;;
5173;SDS011;2606;50.934;6.934;2022-12-18T01:21:13;16.97;;;7.30;;
5173;SDS011;2606;50.934;6.934;2022-12-18T01:23:40;18.02;;;7.50;;
5173;SDS011;2606;50.934;6.934;2022-12-18T01:26:13;18.20;;;6.68;;
5173;SDS011;2606;50.934;6.934;2022-12-18T01:28:40;15.70;;;6.72;;
5173;SDS011;2606;50.934;6.934;2022-12-18T01:31:20;18.98;;;7.47;;
5173;SDS011;2606;50.934;6.934;2022-12-18T01:33:47;14.90;;;7.65;;
5173;SDS011;2606;50.934;6.934;2022-12-18T01:36:18;19.70;;;8.38;;
5173;SDS011;2606;50.934;6.934;2022-12-18T01:38:49;17.80;;;7.15;;
5173;SDS011;2606;50.934;6.934;2022-12-18T01:41:16;26.50;;;7.75;;
5173;SDS011;2606;50.934;6.934;2022-12-18T01:43:45;17.35;;;8.32;;
5173;SDS011;2606;50.934;6.934;2022-12-18T01:46:17;16.05;;;7.63;;
5173;SDS011;2606;50.934;6.934;2022-12-18T01:48:44;19.77;;;7.45;;
5173;SDS011;2606;50.934;6.934;2022-12-18T01:51:12;14.73;;;6.50;;
5173;SDS011;2606;50.934;6.934;2022-12-18T01:53:38;16.40;;;7.43;;
5173;SDS011;2606;50.934;6.934;2022-12-18T01:56:06;21.55;;;7.72;;
5173;SDS011;2606;50.934;6.934;2022-12-18T01:58:39;17.83;;;7.38;;
5173;SDS011;2606;50.934;6.934;2022-12-18T02:01:06;17.00;;;6.85;;
5173;SDS011;2606;50.934;6.934;2022-12-18T02:03:32;15.90;;;8.40;;
5173;SDS011;2606;50.934;6.934;2022-12-18T02:08:45;16.42;;;6.65;;
5173;SDS011;2606;50.934;6.934;2022-12-18T02:11:21;19.10;;;9.10;;
5173;SDS011;2606;50.934;6.934;2022-12-18T02:16:57;20.35;;;8.48;;
5173;SDS011;2606;50.934;6.934;2022-12-18T02:19:44;13.45;;;6.30;;
5173;SDS011;2606;50.934;6.934;2022-12-18T02:22:21;20.63;;;6.82;;
5173;SDS011;2606;50.934;6.934;2022-12-18T02:25:01;18.52;;;7.68;;
5173;SDS011;2606;50.934;6.934;2022-12-18T02:27:43;18.40;;;6.93;;
5173;SDS011;2606;50.934;6.934;2022-12-18T02:30:11;18.38;;;7.22;;
5173;SDS011;2606;50.934;6.934;2022-12-18T02:32:39;16.60;;;7.78;;
5173;SDS011;2606;50.934;6.934;2022-12-18T02:35:09;18.55;;;8.05;;
5173;SDS011;2606;50.934;6.934;2022-12-18T02:37:39;14.02;;;7.40;;
5173;SDS011;2606;50.934;6.934;2022-12-18T02:40:07;11.50;;;6.35;;
5173;SDS011;2606;50.934;6.934;2022-12-18T02:42:35;21.25;;;7.90;;
5173;SDS011;2606;50.934;6.934;2022-12-18T02:45:01;14.13;;;7.40;;
5173;SDS011;2606;50.934;6.934;2022-12-18T02:47:28;12.50;;;6.27;;
5173;SDS011;2606;50.934;6.934;2022-12-18T02:49:59;11.40;;;6.72;;
5173;SDS011;2606;50.934;6.934;2022-12-18T02:58:21;17.98;;;8.70;;
5173;SDS011;2606;50.934;6.934;2022-12-18T03:01:18;17.25;;;7.88;;
5173;SDS011;2606;50.934;6.934;2022-12-18T03:03:56;18.80;;;8.13;;
5173;SDS011;2606;50.934;6.934;2022-12-18T03:06:33;19.73;;;8.15;;
5173;SDS011;2606;50.934;6.934;2022-12-18T03:09:06;14.07;;;6.47;;
5173;SDS011;2606;50.934;6.934;2022-12-18T03:11:34;24.58;;;7.65;;
5173;SDS011;2606;50.934;6.934;2022-12-18T03:14:22;10.00;;;7.18;;
5173;SDS011;2606;50.934;6.934;2022-12-18T03:16:54;17.65;;;7.35;;
5173;SDS011;2606;50.934;6.934;2022-12-18T03:19:24;15.50;;;6.65;;
5173;SDS011;2606;50.934;6.934;2022-12-18T03:21:55;14.25;;;6.45;;
5173;SDS011;2606;50.934;6.934;2022-12-18T03:24:22;16.42;;;8.25;;
5173;SDS011;2606;50.934;6.934;2022-12-18T03:26:51;16.60;;;6.60;;
5173;SDS011;2606;50.934;6.934;2022-12-18T03:29:21;17.58;;;8.15;;
5173;SDS011;2606;50.934;6.934;2022-12-18T03:32:09;18.00;;;7.95;;
5173;SDS011;2606;50.934;6.934;2022-12-18T03:34:40;12.10;;;6.10;;
5173;SDS011;2606;50.934;6.934;2022-12-18T03:37:11;14.40;;;6.50;;
5173;SDS011;2606;50.934;6.934;2022-12-18T03:39:37;12.90;;;6.73;;
5173;SDS011;2606;50.934;6.934;2022-12-18T03:45:07;14.88;;;6.88;;
5173;SDS011;2606;50.934;6.934;2022-12-18T03:50:18;11.63;;;6.70;;
5173;SDS011;2606;50.934;6.934;2022-12-18T03:52:57;14.43;;;6.45;;
5173;SDS011;2606;50.934;6.934;2022-12-18T03:55:40;14.52;;;6.85;;
5173;SDS011;2606;50.934;6.934;2022-12-18T03:58:08;14.00;;;6.65;;
5173;SDS011;2606;50.934;6.934;2022-12-18T04:00:36;14.85;;;6.78;;
5173;SDS011;2606;50.934;6.934;2022-12-18T04:03:02;14.18;;;7.25;;
5173;SDS011;2606;50.934;6.934;2022-12-18T04:05:30;16.13;;;7.10;;
5173;SDS011;2606;50.934;6.934;2022-12-18T04:07:58;16.58;;;7.32;;
5173;SDS011;2606;50.934;6.934;2022-12-18T04:10:24;13.27;;;6.83;;
5173;SDS011;2606;50.934;6.934;2022-12-18T04:12:50;17.30;;;7.27;;
5173;SDS011;2606;50.934;6.934;2022-12-18T04:15:15;15.60;;;6.50;;
5173;SDS011;2606;50.934;6.934;2022-12-18T04:17:43;14.80;;;6.80;;
5173;SDS011;2606;50.934;6.934;2022-12-18T04:20:13;22.08;;;7.13;;
5173;SDS011;2606;50.934;6.934;2022-12-18T04:22:38;20.90;;;10.10;;
5173;SDS011;2606;50.934;6.934;2022-12-18T04:25:04;15.93;;;8.60;;
5173;SDS011;2606;50.934;6.934;2022-12-18T04:27:30;13.73;;;8.10;;
5173;SDS011;2606;50.934;6.934;2022-12-18T04:29:55;20.97;;;8.40;;
5173;SDS011;2606;50.934;6.934;2022-12-18T04:32:21;17.90;;;8.47;;
5173;SDS011;2606;50.934;6.934;2022-12-18T04:34:46;16.93;;;8.20;;
5173;SDS011;2606;50.934;6.934;2022-12-18T04:37:12;14.70;;;7.27;;
5173;SDS011;2606;50.934;6.934;2022-12-18T04:39:38;15.00;;;7.70;;
5173;SDS011;2606;50.934;6.934;2022-12-18T04:42:04;20.87;;;7.00;;
5173;SDS011;2606;50.934;6.934;2022-12-18T04:44:29;18.13;;;8.30;;
5173;SDS011;2606;50.934;6.934;2022-12-18T04:46:55;16.43;;;7.97;;
5173;SDS011;2606;50.934;6.934;2022-12-18T04:49:21;20.80;;;8.60;;
5173;SDS011;2606;50.934;6.934;2022-12-18T04:51:46;20.63;;;7.83;;
5173;SDS011;2606;50.934;6.934;2022-12-18T04:54:12;15.47;;;7.87;;
5173;SDS011;2606;50.934;6.934;2022-12-18T04:56:37;15.43;;;7.40;;
5173;SDS011;2606;50.934;6.934;2022-12-18T04:59:03;21.10;;;7.03;;
5173;SDS011;2606;50.934;6.934;2022-12-18T05:01:29;18.55;;;8.35;;
5173;SDS011;2606;50.934;6.934;2022-12-18T05:03:55;17.70;;;8.10;;
5173;SDS011;2606;50.934;6.934;2022-12-18T05:06:20;20.73;;;8.40;;
5173;SDS011;2606;50.934;6.934;2022-12-18T05:08:46;18.13;;;7.53;;
5173;SDS011;2606;50.934;6.934;2022-12-18T05:11:13;24.37;;;8.70;;
5173;SDS011;2606;50.934;6.934;2022-12-18T05:13:43;22.20;;;9.55;;
5173;SDS011;2606;50.934;6.934;2022-12-18T05:16:09;22.27;;;8.75;;
5173;SDS011;2606;50.934;6.934;2022-12-18T05:18:36;16.13;;;7.47;;
5173;SDS011;2606;50.934;6.934;2022-12-18T05:21:02;19.33;;;8.27;;
5173;SDS011;2606;50.934;6.934;2022-12-18T05:23:28;23.20;;;9.80;;
5173;SDS011;2606;50.934;6.934;2022-12-18T05:25:54;18.57;;;9.10;;
5173;SDS011;2606;50.934;6.934;2022-12-18T05:28:20;22.00;;;8.65;;
5173;SDS011;2606;50.934;6.934;2022-12-18T05:30:50;19.40;;;6.75;;
5173;SDS011;2606;50.934;6.934;2022-12-18T05:33:20;19.98;;;8.18;;
5173;SDS011;2606;50.934;6.934;2022-12-18T05:35:50;17.95;;;8.15;;
5173;SDS011;2606;50.934;6.934;2022-12-18T05:38:19;19.90;;;10.10;;
5173;SDS011;2606;50.934;6.934;2022-12-18T05:40:47;14.02;;;7.30;;
5173;SDS011;2606;50.934;6.934;2022-12-18T05:43:13;15.98;;;8.02;;
5173;SDS011;2606;50.934;6.934;2022-12-18T05:45:39;18.38;;;8.65;;
5173;SDS011;2606;50.934;6.934;2022-12-18T05:48:06;19.77;;;8.00;;
5173;SDS011;2606;50.934;6.934;2022-12-18T05:50:35;19.73;;;8.70;;
5173;SDS011;2606;50.934;6.934;2022-12-18T05:53:02;17.25;;;8.93;;
5173;SDS011;2606;50.934;6.934;2022-12-18T05:55:29;21.15;;;7.60;;
5173;SDS011;2606;50.934;6.934;2022-12-18T05:57:57;18.80;;;8.77;;
5173;SDS011;2606;50.934;6.934;2022-12-18T06:00:23;22.53;;;8.57;;
5173;SDS011;2606;50.934;6.934;2022-12-18T06:02:48;19.83;;;8.30;;
5173;SDS011;2606;50.934;6.934;2022-12-18T06:05:14;16.80;;;8.00;;
5173;SDS011;2606;50.934;6.934;2022-12-18T06:07:40;16.87;;;7.27;;
5173;SDS011;2606;50.934;6.934;2022-12-18T06:10:05;26.03;;;7.77;;
5173;SDS011;2606;50.934;6.934;2022-12-18T06:12:31;18.40;;;7.47;;
5173;SDS011;2606;50.934;6.934;2022-12-18T06:14:58;16.45;;;7.18;;
5173;SDS011;2606;50.934;6.934;2022-12-18T06:17:27;19.48;;;7.68;;
5173;SDS011;2606;50.934;6.934;2022-12-18T06:19:56;19.42;;;8.82;;
5173;SDS011;2606;50.934;6.934;2022-12-18T06:22:22;17.80;;;9.20;;
5173;SDS011;2606;50.934;6.934;2022-12-18T06:24:48;18.57;;;8.40;;
5173;SDS011;2606;50.934;6.934;2022-12-18T06:27:14;14.67;;;7.60;;
5173;SDS011;2606;50.934;6.934;2022-12-18T06:29:39;25.03;;;9.60;;
5173;SDS011;2606;50.934;6.934;2022-12-18T06:32:05;19.30;;;8.20;;
5173;SDS011;2606;50.934;6.934;2022-12-18T06:34:31;16.87;;;8.03;;
5173;SDS011;2606;50.934;6.934;2022-12-18T06:36:57;18.27;;;8.25;;
5173;SDS011;2606;50.934;6.934;2022-12-18T06:39:23;19.52;;;8.50;;
5173;SDS011;2606;50.934;6.934;2022-12-18T06:41:49;23.30;;;8.90;;
5173;SDS011;2606;50.934;6.934;2022-12-18T06:44:15;21.00;;;8.90;;
5173;SDS011;2606;50.934;6.934;2022-12-18T06:46:40;19.17;;;8.33;;
5173;SDS011;2606;50.934;6.934;2022-12-18T06:49:06;20.00;;;8.43;;
5173;SDS011;2606;50.934;6.934;2022-12-18T06:51:34;20.23;;;8.07;;
5173;SDS011;2606;50.934;6.934;2022-12-18T06:53:59;20.43;;;9.73;;
5173;SDS011;2606;50.934;6.934;2022-12-18T06:56:25;14.87;;;8.10;;
5173;SDS011;2606;50.934;6.934;2022-12-18T06:58:51;20.00;;;8.50;;
5173;SDS011;2606;50.934;6.934;2022-12-18T07:01:16;20.17;;;9.77;;
5173;SDS011;2606;50.934;6.934;2022-12-18T07:03:42;16.70;;;7.60;;
5173;SDS011;2606;50.934;6.934;2022-12-18T07:06:15;14.37;;;7.80;;
5173;SDS011;2606;50.934;6.934;2022-12-18T07:08:42;21.77;;;9.35;;
5173;SDS011;2606;50.934;6.934;2022-12-18T07:11:08;16.10;;;7.43;;
5173;SDS011;2606;50.934;6.934;2022-12-18T07:13:33;19.23;;;8.10;;
5173;SDS011;2606;50.934;6.934;2022-12-18T07:16:03;22.67;;;7.80;;
5173;SDS011;2606;50.934;6.934;2022-12-18T07:18:36;18.20;;;8.75;;
5173;SDS011;2606;50.934;6.934;2022-12-18T07:21:03;13.20;;;7.23;;
5173;SDS011;2606;50.934;6.934;2022-12-18T07:23:30;19.25;;;8.88;;
5173;SDS011;2606;50.934;6.934;2022-12-18T07:26:01;18.25;;;7.88;;
5173;SDS011;2606;50.934;6.934;2022-12-18T07:28:32;19.23;;;8.82;;
5173;SDS011;2606;50.934;6.934;2022-12-18T07:31:01;17.98;;;8.95;;
5173;SDS011;2606;50.934;6.934;2022-12-18T07:33:32;20.02;;;9.35;;
5173;SDS011;2606;50.934;6.934;2022-12-18T07:36:04;17.30;;;8.40;;
5173;SDS011;2606;50.934;6.934;2022-12-18T07:38:32;16.15;;;7.25;;
5173;SDS011;2606;50.934;6.934;2022-12-18T07:41:02;17.77;;;8.02;;
5173;SDS011;2606;50.934;6.934;2022-12-18T07:43:29;23.02;;;9.10;;
5173;SDS011;2606;50.934;6.934;2022-12-18T07:45:55;17.20;;;8.60;;
5173;SDS011;2606;50.934;6.934;2022-12-18T07:48:20;17.00;;;7.60;;
5173;SDS011;2606;50.934;6.934;2022-12-18T07:50:46;25.40;;;13.33;;
5173;SDS011;2606;50.934;6.934;2022-12-18T07:53:11;16.13;;;8.27;;
5173;SDS011;2606;50.934;6.934;2022-12-18T07:55:37;23.27;;;10.20;;
5173;SDS011;2606;50.934;6.934;2022-12-18T07:58:03;18.67;;;8.77;;
5173;SDS011;2606;50.934;6.934;2022-12-18T08:00:29;20.88;;;9.57;;
5173;SDS011;2606;50.934;6.934;2022-12-18T08:02:55;16.38;;;7.93;;
5173;SDS011;2606;50.934;6.934;2022-12-18T08:05:21;21.13;;;8.73;;
5173;SDS011;2606;50.934;6.934;2022-12-18T08:07:47;18.40;;;8.70;;
5173;SDS011;2606;50.934;6.934;2022-12-18T08:10:13;15.50;;;6.60;;
5173;SDS011;2606;50.934;6.934;2022-12-18T08:12:38;25.43;;;8.77;;
5173;SDS011;2606;50.934;6.934;2022-12-18T08:15:04;27.13;;;8.70;;
5173;SDS011;2606;50.934;6.934;2022-12-18T08:17:30;24.77;;;9.48;;
5173;SDS011;2606;50.934;6.934;2022-12-18T08:19:56;26.80;;;9.40;;
5173;SDS011;2606;50.934;6.934;2022-12-18T08:22:22;21.67;;;9.43;;
5173;SDS011;2606;50.934;6.934;2022-12-18T08:24:47;22.43;;;8.50;;
5173;SDS011;2606;50.934;6.934;2022-12-18T08:27:13;20.77;;;8.63;;
5173;SDS011;2606;50.934;6.934;2022-12-18T08:29:38;21.30;;;8.70;;
5173;SDS011;2606;50.934;6.934;2022-12-18T08:32:04;17.10;;;7.87;;
5173;SDS011;2606;50.934;6.934;2022-12-18T08:34:30;20.90;;;8.97;;
5173;SDS011;2606;50.934;6.934;2022-12-18T08:36:55;20.20;;;8.23;;
5173;SDS011;2606;50.934;6.934;2022-12-18T08:39:21;22.10;;;9.00;;
5173;SDS011;2606;50.934;6.934;2022-12-18T08:41:46;15.40;;;8.10;;
5173;SDS011;2606;50.934;6.934;2022-12-18T08:44:32;15.50;;;7.63;;
5173;SDS011;2606;50.934;6.934;2022-12-18T08:47:03;13.57;;;7.93;;
5173;SDS011;2606;50.934;6.934;2022-12-18T08:49:32;16.88;;;8.43;;
5173;SDS011;2606;50.934;6.934;2022-12-18T08:51:58;16.35;;;8.20;;
5173;SDS011;2606;50.934;6.934;2022-12-18T08:54:24;17.50;;;8.63;;
5173;SDS011;2606;50.934;6.934;2022-12-18T08:56:51;14.52;;;8.10;;
5173;SDS011;2606;50.934;6.934;2022-12-18T08:59:17;16.17;;;7.80;;
5173;SDS011;2606;50.934;6.934;2022-12-18T09:01:43;16.48;;;7.53;;
5173;SDS011;2606;50.934;6.934;2022-12-18T09:04:09;21.03;;;10.03;;
5173;SDS011;2606;50.934;6.934;2022-12-18T09:06:35;17.17;;;7.90;;
5173;SDS011;2606;50.934;6.934;2022-12-18T09:09:01;18.75;;;8.93;;
5173;SDS011;2606;50.934;6.934;2022-12-18T09:11:28;22.33;;;8.83;;
5173;SDS011;2606;50.934;6.934;2022-12-18T09:13:54;21.70;;;9.68;;
5173;SDS011;2606;50.934;6.934;2022-12-18T09:16:20;20.10;;;8.45;;
5173;SDS011;2606;50.934;6.934;2022-12-18T09:18:46;19.58;;;7.28;;
5173;SDS011;2606;50.934;6.934;2022-12-18T09:21:19;22.40;;;8.52;;
5173;SDS011;2606;50.934;6.934;2022-12-18T09:23:52;17.27;;;8.93;;
5173;SDS011;2606;50.934;6.934;2022-12-18T09:26:19;24.50;;;8.50;;
5173;SDS011;2606;50.934;6.934;2022-12-18T09:28:45;16.02;;;8.30;;
5173;SDS011;2606;50.934;6.934;2022-12-18T09:31:11;21.00;;;9.07;;
5173;SDS011;2606;50.934;6.934;2022-12-18T09:33:40;17.75;;;8.18;;
5173;SDS011;2606;50.934;6.934;2022-12-18T09:36:08;22.27;;;8.87;;
5173;SDS011;2606;50.934;6.934;2022-12-18T09:38:42;20.90;;;9.30;;
5173;SDS011;2606;50.934;6.934;2022-12-18T09:44:14;25.52;;;9.38;;
5173;SDS011;2606;50.934;6.934;2022-12-18T09:46:44;18.88;;;7.78;;
5173;SDS011;2606;50.934;6.934;2022-12-18T09:49:18;18.90;;;8.73;;
5173;SDS011;2606;50.934;6.934;2022-12-18T09:54:24;23.38;;;9.18;;
5173;SDS011;2606;50.934;6.934;2022-12-18T09:56:55;18.60;;;7.90;;
5173;SDS011;2606;50.934;6.934;2022-12-18T10:01:51;20.52;;;8.45;;
5173;SDS011;2606;50.934;6.934;2022-12-18T10:04:17;21.67;;;9.13;;
5173;SDS011;2606;50.934;6.934;2022-12-18T10:09:33;16.55;;;8.90;;
5173;SDS011;2606;50.934;6.934;2022-12-18T10:20:24;21.73;;;10.53;;
5173;SDS011;2606;50.934;6.934;2022-12-18T10:26:03;18.33;;;8.60;;
5173;SDS011;2606;50.934;6.934;2022-12-18T10:28:33;20.92;;;8.30;;
5173;SDS011;2606;50.934;6.934;2022-12-18T10:31:15;20.15;;;8.23;;
5173;SDS011;2606;50.934;6.934;2022-12-18T10:33:42;17.38;;;8.07;;
5173;SDS011;2606;50.934;6.934;2022-12-18T10:36:08;21.30;;;8.13;;
5173;SDS011;2606;50.934;6.934;2022-12-18T10:38:34;21.10;;;8.43;;
5173;SDS011;2606;50.934;6.934;2022-12-18T10:41:45;14.02;;;7.22;;
5173;SDS011;2606;50.934;6.934;2022-12-18T10:43:52;20.67;;;9.48;;
5173;SDS011;2606;50.934;6.934;2022-12-18T10:46:53;20.25;;;8.75;;
5173;SDS011;2606;50.934;6.934;2022-12-18T10:49:29;18.40;;;7.32;;
5173;SDS011;2606;50.934;6.934;2022-12-18T10:52:04;22.55;;;9.27;;
5173;SDS011;2606;50.934;6.934;2022-12-18T10:54:51;19.80;;;9.25;;
5173;SDS011;2606;50.934;6.934;2022-12-18T10:57:34;20.85;;;9.32;;
5173;SDS011;2606;50.934;6.934;2022-12-18T11:00:20;20.27;;;8.35;;
5173;SDS011;2606;50.934;6.934;2022-12-18T11:02:47;22.23;;;9.27;;
5173;SDS011;2606;50.934;6.934;2022-12-18T11:05:23;14.53;;;7.27;;
5173;SDS011;2606;50.934;6.934;2022-12-18T11:08:01;22.38;;;8.50;;
5173;SDS011;2606;50.934;6.934;2022-12-18T11:12:55;28.53;;;9.17;;
5173;SDS011;2606;50.934;6.934;2022-12-18T11:15:33;20.33;;;8.35;;
5173;SDS011;2606;50.934;6.934;2022-12-18T11:17:59;15.75;;;8.38;;
5173;SDS011;2606;50.934;6.934;2022-12-18T11:20:32;25.73;;;9.30;;
5173;SDS011;2606;50.934;6.934;2022-12-18T11:23:01;19.80;;;9.55;;
5173;SDS011;2606;50.934;6.934;2022-12-18T11:25:29;20.55;;;8.98;;
5173;SDS011;2606;50.934;6.934;2022-12-18T11:28:08;26.58;;;8.90;;
5173;SDS011;2606;50.934;6.934;2022-12-18T11:31:11;20.85;;;8.82;;
5173;SDS011;2606;50.934;6.934;2022-12-18T11:33:41;20.25;;;8.35;;
5173;SDS011;2606;50.934;6.934;2022-12-18T11:36:09;19.98;;;8.43;;
5173;SDS011;2606;50.934;6.934;2022-12-18T11:38:39;35.50;;;8.47;;
5173;SDS011;2606;50.934;6.934;2022-12-18T11:41:28;30.17;;;10.05;;
5173;SDS011;2606;50.934;6.934;2022-12-18T11:44:26;23.90;;;8.77;;
5173;SDS011;2606;50.934;6.934;2022-12-18T11:47:00;19.40;;;8.00;;
5173;SDS011;2606;50.934;6.934;2022-12-18T11:49:34;19.70;;;8.27;;
5173;SDS011;2606;50.934;6.934;2022-12-18T11:52:14;19.15;;;7.38;;
5173;SDS011;2606;50.934;6.934;2022-12-18T11:54:53;30.70;;;13.20;;
5173;SDS011;2606;50.934;6.934;2022-12-18T12:08:23;22.55;;;8.05;;
5173;SDS011;2606;50.934;6.934;2022-12-18T12:18:47;21.97;;;8.53;;
5173;SDS011;2606;50.934;6.934;2022-12-18T12:23:57;16.20;;;8.50;;
5173;SDS011;2606;50.934;6.934;2022-12-18T12:26:33;24.10;;;8.30;;
5173;SDS011;2606;50.934;6.934;2022-12-18T12:29:27;20.55;;;9.02;;
5173;SDS011;2606;50.934;6.934;2022-12-18T12:32:12;16.95;;;7.65;;
5173;SDS011;2606;50.934;6.934;2022-12-18T12:35:05;20.20;;;9.07;;
5173;SDS011;2606;50.934;6.934;2022-12-18T12:40:28;19.50;;;8.40;;
5173;SDS011;2606;50.934;6.934;2022-12-18T12:42:59;25.88;;;8.68;;
5173;SDS011;2606;50.934;6.934;2022-12-18T12:48:17;20.40;;;8.80;;
5173;SDS011;2606;50.934;6.934;2022-12-18T12:50:49;20.98;;;9.55;;
5173;SDS011;2606;50.934;6.934;2022-12-18T12:53:48;20.38;;;10.00;;
5173;SDS011;2606;50.934;6.934;2022-12-18T12:56:08;19.60;;;8.88;;
5173;SDS011;2606;50.934;6.934;2022-12-18T12:58:43;21.80;;;10.05;;
5173;SDS011;2606;50.934;6.934;2022-12-18T13:12:58;23.05;;;9.60;;
5173;SDS011;2606;50.934;6.934;2022-12-18T13:15:42;25.58;;;10.07;;
5173;SDS011;2606;50.934;6.934;2022-12-18T13:20:36;30.50;;;11.80;;
5173;SDS011;2606;50.934;6.934;2022-12-18T13:23:19;36.88;;;16.00;;
5173;SDS011;2606;50.934;6.934;2022-12-18T13:25:51;21.83;;;9.50;;
5173;SDS011;2606;50.934;6.934;2022-12-18T13:28:21;21.35;;;11.07;;
5173;SDS011;2606;50.934;6.934;2022-12-18T13:31:06;25.20;;;11.13;;
5173;SDS011;2606;50.934;6.934;2022-12-18T13:33:45;20.10;;;9.70;;
5173;SDS011;2606;50.934;6.934;2022-12-18T13:36:16;19.80;;;9.13;;
5173;SDS011;2606;50.934;6.934;2022-12-18T13:39:09;25.92;;;11.35;;
5173;SDS011;2606;50.934;6.934;2022-12-18T13:41:35;21.30;;;9.90;;
5173;SDS011;2606;50.934;6.934;2022-12-18T13:44:10;24.10;;;10.80;;
5173;SDS011;2606;50.934;6.934;2022-12-18T13:46:44;26.27;;;10.65;;
5173;SDS011;2606;50.934;6.934;2022-12-18T13:51:39;29.63;;;12.03;;
5173;SDS011;2606;50.934;6.934;2022-12-18T13:56:49;27.02;;;12.98;;
5173;SDS011;2606;50.934;6.934;2022-12-18T13:59:22;23.97;;;11.37;;
5173;SDS011;2606;50.934;6.934;2022-12-18T14:04:32;20.77;;;9.85;;
5173;SDS011;2606;50.934;6.934;2022-12-18T14:07:04;27.40;;;11.00;;
5173;SDS011;2606;50.934;6.934;2022-12-18T14:09:41;23.23;;;9.57;;
5173;SDS011;2606;50.934;6.934;2022-12-18T14:12:24;23.60;;;9.87;;
5173;SDS011;2606;50.934;6.934;2022-12-18T14:17:55;23.80;;;10.60;;
5173;SDS011;2606;50.934;6.934;2022-12-18T14:20:39;25.58;;;11.43;;
5173;SDS011;2606;50.934;6.934;2022-12-18T14:26:03;36.30;;;10.57;;
5173;SDS011;2606;50.934;6.934;2022-12-18T14:28:44;26.20;;;10.73;;
5173;SDS011;2606;50.934;6.934;2022-12-18T14:31:20;23.53;;;10.10;;
5173;SDS011;2606;50.934;6.934;2022-12-18T14:33:47;23.90;;;10.20;;
5173;SDS011;2606;50.934;6.934;2022-12-18T14:36:17;24.23;;;11.47;;
5173;SDS011;2606;50.934;6.934;2022-12-18T14:38:51;25.27;;;11.40;;
5173;SDS011;2606;50.934;6.934;2022-12-18T14:41:22;24.10;;;10.88;;
5173;SDS011;2606;50.934;6.934;2022-12-18T14:43:50;24.98;;;10.57;;
5173;SDS011;2606;50.934;6.934;2022-12-18T14:46:32;25.50;;;10.47;;
5173;SDS011;2606;50.934;6.934;2022-12-18T14:51:51;22.77;;;11.17;;
5173;SDS011;2606;50.934;6.934;2022-12-18T14:54:19;22.48;;;10.40;;
5173;SDS011;2606;50.934;6.934;2022-12-18T14:59:43;23.60;;;10.40;;
5173;SDS011;2606;50.934;6.934;2022-12-18T15:02:18;28.13;;;11.73;;
5173;SDS011;2606;50.934;6.934;2022-12-18T15:05:03;24.73;;;11.10;;
5173;SDS011;2606;50.934;6.934;2022-12-18T15:20:32;26.65;;;11.32;;
5173;SDS011;2606;50.934;6.934;2022-12-18T15:26:01;25.80;;;10.23;;
5173;SDS011;2606;50.934;6.934;2022-12-18T15:28:34;29.87;;;12.57;;
5173;SDS011;2606;50.934;6.934;2022-12-18T15:33:31;22.83;;;10.65;;
5173;SDS011;2606;50.934;6.934;2022-12-18T15:36:03;23.13;;;10.90;;
5173;SDS011;2606;50.934;6.934;2022-12-18T15:38:33;28.17;;;12.15;;
5173;SDS011;2606;50.934;6.934;2022-12-18T15:40:59;25.00;;;12.00;;
5173;SDS011;2606;50.934;6.934;2022-12-18T15:43:26;32.47;;;13.33;;
5173;SDS011;2606;50.934;6.934;2022-12-18T15:48:33;23.75;;;12.63;;
5173;SDS011;2606;50.934;6.934;2022-12-18T15:50:59;22.60;;;10.70;;
5173;SDS011;2606;50.934;6.934;2022-12-18T15:53:27;26.77;;;12.03;;
5173;SDS011;2606;50.934;6.934;2022-12-18T15:55:56;32.80;;;11.90;;
5173;SDS011;2606;50.934;6.934;2022-12-18T15:58:41;28.75;;;13.13;;
5173;SDS011;2606;50.934;6.934;2022-12-18T16:01:07;28.23;;;11.27;;
5173;SDS011;2606;50.934;6.934;2022-12-18T16:03:35;25.95;;;11.95;;
5173;SDS011;2606;50.934;6.934;2022-12-18T16:06:00;25.90;;;12.70;;
5173;SDS011;2606;50.934;6.934;2022-12-18T16:08:27;32.70;;;12.55;;
5173;SDS011;2606;50.934;6.934;2022-12-18T16:10:54;24.75;;;11.25;;
5173;SDS011;2606;50.934;6.934;2022-12-18T16:13:20;25.65;;;11.20;;
5173;SDS011;2606;50.934;6.934;2022-12-18T16:15:46;27.43;;;12.27;;
5173;SDS011;2606;50.934;6.934;2022-12-18T16:18:11;30.37;;;13.60;;
5173;SDS011;2606;50.934;6.934;2022-12-18T16:20:37;28.57;;;11.30;;
5173;SDS011;2606;50.934;6.934;2022-12-18T16:23:03;30.63;;;14.37;;
5173;SDS011;2606;50.934;6.934;2022-12-18T16:25:29;25.00;;;11.90;;
5173;SDS011;2606;50.934;6.934;2022-12-18T16:27:55;28.37;;;12.40;;
5173;SDS011;2606;50.934;6.934;2022-12-18T16:30:23;27.02;;;10.15;;
5173;SDS011;2606;50.934;6.934;2022-12-18T16:32:52;27.83;;;12.13;;
5173;SDS011;2606;50.934;6.934;2022-12-18T16:35:17;26.80;;;11.53;;
5173;SDS011;2606;50.934;6.934;2022-12-18T16:37:43;34.53;;;12.87;;
5173;SDS011;2606;50.934;6.934;2022-12-18T16:40:10;28.57;;;11.70;;
5173;SDS011;2606;50.934;6.934;2022-12-18T16:42:39;25.50;;;11.40;;
5173;SDS011;2606;50.934;6.934;2022-12-18T16:45:07;30.98;;;13.00;;
5173;SDS011;2606;50.934;6.934;2022-12-18T16:47:34;29.63;;;11.35;;
5173;SDS011;2606;50.934;6.934;2022-12-18T16:49:59;23.00;;;10.83;;
5173;SDS011;2606;50.934;6.934;2022-12-18T16:52:25;25.43;;;11.63;;
5173;SDS011;2606;50.934;6.934;2022-12-18T16:54:51;37.80;;;12.40;;
5173;SDS011;2606;50.934;6.934;2022-12-18T16:57:18;28.70;;;11.17;;
5173;SDS011;2606;50.934;6.934;2022-12-18T16:59:45;28.83;;;13.02;;
5173;SDS011;2606;50.934;6.934;2022-12-18T17:02:12;31.67;;;13.13;;
5173;SDS011;2606;50.934;6.934;2022-12-18T17:04:42;31.35;;;12.80;;
5173;SDS011;2606;50.934;6.934;2022-12-18T17:07:09;28.30;;;13.27;;
5173;SDS011;2606;50.934;6.934;2022-12-18T17:09:35;40.15;;;13.00;;
5173;SDS011;2606;50.934;6.934;2022-12-18T17:12:01;28.98;;;12.27;;
5173;SDS011;2606;50.934;6.934;2022-12-18T17:14:27;31.92;;;13.18;;
5173;SDS011;2606;50.934;6.934;2022-12-18T17:16:54;29.70;;;13.47;;